Time;durP1;ratioP1;P1;durP2;ratioP2;P2;SDS_P1;SDS_P2;PMS_P1;PMS_P2;Temp;Humidity;BMP_temperature;BMP_pressure;BME280_temperature;BME280_humidity;BME280_pressure;Samples;Min_cycle;Max_cycle;Signal;HPM_P1;HPM_P2
2023/02/20 00:01:55;;;;;;;35.35;21.73;;;307.60;2304.00;;;;;;5056222;28;20025;-88
2023/02/20 00:04:21;;;;;;;31.58;19.85;;;307.70;2304.00;;;;;;5055973;28;20067;-91
2023/02/20 00:06:46;;;;;;;38.08;25.27;;;307.80;2304.00;;;;;;5056418;28;20033;-88
2023/02/20 00:09:13;;;;;;;31.40;20.70;;;307.80;2304.00;;;;;;5056166;28;20021;-87
2023/02/20 00:11:39;;;;;;;22.45;16.02;;;307.80;2304.00;;;;;;5056021;28;20052;-88
2023/02/20 00:14:05;;;;;;;18.77;13.25;;;307.80;2304.00;;;;;;5056226;28;20029;-89
2023/02/20 00:16:30;;;;;;;18.92;12.50;;;307.80;2304.00;;;;;;5056055;28;20029;-89
2023/02/20 00:18:56;;;;;;;25.00;16.13;;;307.80;2304.00;;;;;;5056171;28;20091;-89
2023/02/20 00:21:22;;;;;;;20.55;14.95;;;307.70;2304.00;;;;;;5055859;28;20606;-89
2023/02/20 00:23:48;;;;;;;25.85;19.40;;;307.50;2304.00;;;;;;5055901;28;20452;-88
2023/02/20 00:26:14;;;;;;;26.27;18.75;;;307.40;2304.00;;;;;;5055702;28;20484;-88
2023/02/20 00:28:41;;;;;;;24.80;15.98;;;307.20;2304.00;;;;;;5055699;28;20036;-88
2023/02/20 00:31:07;;;;;;;31.63;17.95;;;282.40;2278.40;;;;;;5055484;28;20090;-90
2023/02/20 00:33:33;;;;;;;30.17;19.27;;;282.20;2278.40;;;;;;5055832;28;20029;-89
2023/02/20 00:35:59;;;;;;;21.45;14.70;;;282.20;2278.40;;;;;;5056320;28;20470;-91
2023/02/20 00:38:25;;;;;;;17.98;13.32;;;282.00;2278.40;;;;;;5055464;28;20393;-89
2023/02/20 00:40:50;;;;;;;21.50;15.00;;;282.00;2278.40;;;;;;5055758;28;20108;-89
2023/02/20 00:43:16;;;;;;;22.13;15.15;;;282.20;2278.40;;;;;;5055425;28;20518;-88
2023/02/20 00:45:42;;;;;;;22.85;14.82;;;282.20;2278.40;;;;;;5055312;28;20074;-89
2023/02/20 00:48:07;;;;;;;23.98;15.13;;;282.50;2278.40;;;;;;5055558;28;20025;-89
2023/02/20 00:50:33;;;;;;;26.02;17.42;;;282.00;2278.40;;;;;;5055581;28;20087;-90
2023/02/20 00:52:59;;;;;;;21.23;14.82;;;282.00;2278.40;;;;;;5055289;28;20032;-90
2023/02/20 00:55:25;;;;;;;24.30;15.45;;;282.00;2278.40;;;;;;5054978;28;20104;-90
2023/02/20 00:57:50;;;;;;;27.50;15.50;;;282.00;2278.40;;;;;;5055201;28;20036;-90
2023/02/20 01:00:24;;;;;;;32.65;19.08;;;282.10;2278.40;;;;;;5055486;28;20043;-90
2023/02/20 01:02:49;;;;;;;30.90;19.10;;;282.00;2278.40;;;;;;5055128;28;20029;-88
2023/02/20 01:05:15;;;;;;;32.75;20.00;;;282.00;2278.40;;;;;;5054767;28;20025;-90
2023/02/20 01:07:41;;;;;;;47.33;28.70;;;282.10;2278.40;;;;;;5055147;28;20124;-90
2023/02/20 01:10:09;;;;;;;50.28;32.47;;;282.00;2278.40;;;;;;5055193;28;20492;-90
2023/02/20 01:12:34;;;;;;;44.05;28.85;;;282.10;2278.40;;;;;;5055018;28;20025;-91
2023/02/20 01:15:00;;;;;;;33.55;23.58;;;282.00;2278.40;;;;;;5054988;28;20079;-90
2023/02/20 01:17:26;;;;;;;33.97;23.77;;;282.00;2278.40;;;;;;5054818;28;20097;-90
2023/02/20 01:19:51;;;;;;;33.22;23.63;;;281.90;2278.40;;;;;;5054901;28;20029;-89
2023/02/20 01:22:17;;;;;;;26.42;19.58;;;281.90;2278.40;;;;;;5054714;28;20029;-89
2023/02/20 01:24:43;;;;;;;25.27;18.30;;;281.80;2278.40;;;;;;5054782;28;20112;-87
2023/02/20 01:27:09;;;;;;;20.63;15.70;;;281.80;2278.40;;;;;;5054855;28;20419;-89
2023/02/20 01:29:35;;;;;;;20.05;14.40;;;281.80;2278.40;;;;;;5054666;28;20043;-90
2023/02/20 01:32:00;;;;;;;19.73;13.25;;;281.80;2278.40;;;;;;5054521;28;20028;-90
2023/02/20 01:34:26;;;;;;;15.63;11.50;;;281.80;2278.40;;;;;;5053899;28;20063;-88
2023/02/20 01:36:53;;;;;;;16.23;10.90;;;281.80;2278.40;;;;;;5054012;28;20055;-88
2023/02/20 01:39:22;;;;;;;20.30;13.35;;;282.00;2278.40;;;;;;5054224;28;20059;-88
2023/02/20 01:41:52;;;;;;;16.95;11.27;;;281.90;2278.40;;;;;;5054196;28;20021;-90
2023/02/20 01:44:25;;;;;;;14.45;10.30;;;281.90;2278.40;;;;;;5054294;28;20033;-90
2023/02/20 01:46:56;;;;;;;14.20;9.93;;;281.90;2278.40;;;;;;5054363;28;20037;-89
2023/02/20 01:49:34;;;;;;;14.85;10.52;;;281.90;2278.40;;;;;;5054461;28;20028;-89
2023/02/20 01:52:27;;;;;;;17.08;12.00;;;281.80;2278.40;;;;;;5054633;28;20059;-88
2023/02/20 01:54:58;;;;;;;20.65;12.80;;;281.80;2278.40;;;;;;5054076;28;20126;-89
2023/02/20 01:57:29;;;;;;;37.95;24.05;;;281.80;2278.40;;;;;;5054225;28;20029;-89
2023/02/20 02:00:00;;;;;;;21.70;15.23;;;281.80;2278.40;;;;;;5050389;28;20495;-88
2023/02/20 02:02:29;;;;;;;20.05;13.80;;;281.80;2278.40;;;;;;5033007;28;20509;-90
2023/02/20 02:04:55;;;;;;;27.77;18.35;;;281.80;2278.40;;;;;;5033300;28;20029;-88
2023/02/20 02:07:21;;;;;;;29.15;18.95;;;281.80;2278.40;;;;;;5033722;28;20025;-86
2023/02/20 02:10:13;;;;;;;20.98;14.00;;;281.80;2278.40;;;;;;5036474;28;20121;-89
2023/02/20 02:12:41;;;;;;;18.90;12.20;;;281.80;2278.40;;;;;;5035565;28;20021;-85
2023/02/20 02:15:18;;;;;;;19.40;12.60;;;281.80;2278.40;;;;;;5033537;28;20025;-88
2023/02/20 02:18:33;;;;;;;15.70;11.70;;;281.70;2278.40;;;;;;5033841;28;20053;-88
2023/02/20 02:21:26;;;;;;;23.80;14.48;;;281.70;2278.40;;;;;;5016037;28;20029;-89
2023/02/20 02:24:14;;;;;;;22.90;14.63;;;281.70;2278.40;;;;;;5049007;28;20085;-88
2023/02/20 02:26:52;;;;;;;18.85;13.18;;;281.70;2278.40;;;;;;5050051;28;20060;-92
2023/02/20 02:29:46;;;;;;;20.77;13.98;;;281.70;2278.40;;;;;;5033617;28;20461;-89
2023/02/20 02:32:40;;;;;;;19.30;13.70;;;281.70;2278.40;;;;;;5033667;28;20381;-89
2023/02/20 02:35:25;;;;;;;18.90;12.30;;;281.70;2278.40;;;;;;5033313;28;20107;-88
2023/02/20 02:38:10;;;;;;;20.60;13.88;;;281.60;2278.40;;;;;;5033412;28;20026;-90
2023/02/20 02:41:02;;;;;;;23.75;15.15;;;256.90;2252.80;;;;;;5033678;28;20457;-89
2023/02/20 02:43:46;;;;;;;25.53;15.77;;;256.90;2252.80;;;;;;5033457;28;20031;-89
2023/02/20 02:46:38;;;;;;;33.97;19.90;;;256.90;2252.80;;;;;;5033440;28;20267;-86
2023/02/20 02:49:37;;;;;;;38.00;21.13;;;256.90;2252.80;;;;;;5050414;28;20127;-90
2023/02/20 02:52:04;;;;;;;27.65;17.50;;;256.90;2252.80;;;;;;5044993;28;20029;-89
2023/02/20 02:54:30;;;;;;;24.35;14.30;;;256.90;2252.80;;;;;;5053570;28;20057;-89
2023/02/20 02:57:34;;;;;;;18.15;13.18;;;256.90;2252.80;;;;;;5053340;28;20075;-88
2023/02/20 03:00:10;;;;;;;23.55;15.00;;;256.70;2252.80;;;;;;4996126;28;20030;-89
2023/02/20 03:03:00;;;;;;;18.02;14.07;;;256.70;2252.80;;;;;;4996289;28;20533;-89
2023/02/20 03:05:45;;;;;;;19.23;13.70;;;256.60;2252.80;;;;;;5035374;28;20098;-89
2023/02/20 03:08:36;;;;;;;21.63;14.75;;;256.50;2252.80;;;;;;5053197;28;20060;-90
2023/02/20 03:11:06;;;;;;;21.10;14.20;;;256.50;2252.80;;;;;;5055292;28;20460;-88
2023/02/20 03:16:44;;;;;;;21.98;14.95;;;256.40;2252.80;;;;;;5054222;28;20036;-89
2023/02/20 03:19:12;;;;;;;31.65;18.58;;;256.40;2252.80;;;;;;5056065;28;20091;-88
2023/02/20 03:21:45;;;;;;;36.85;20.88;;;256.40;2252.80;;;;;;5056932;28;20028;-89
2023/02/20 03:24:13;;;;;;;56.70;28.75;;;256.50;2252.80;;;;;;5056999;28;20025;-89
2023/02/20 03:26:42;;;;;;;39.92;23.88;;;256.50;2252.80;;;;;;5056756;28;20029;-89
2023/02/20 03:29:17;;;;;;;39.70;23.48;;;256.50;2252.80;;;;;;5056788;28;20453;-90
2023/02/20 03:43:22;;;;;;;24.33;16.45;;;256.50;2252.80;;;;;;5057496;28;20075;-89
2023/02/20 03:45:48;;;;;;;23.50;15.73;;;256.50;2252.80;;;;;;5056461;28;20033;-89
2023/02/20 03:48:29;;;;;;;21.88;14.85;;;256.50;2252.80;;;;;;5056512;28;20031;-89
2023/02/20 03:50:55;;;;;;;20.00;13.60;;;256.50;2252.80;;;;;;5056532;28;20098;-89
2023/02/20 03:53:23;;;;;;;17.15;11.80;;;256.50;2252.80;;;;;;5039462;28;20033;-88
2023/02/20 03:55:51;;;;;;;22.35;12.30;;;256.40;2252.80;;;;;;5069555;28;20025;-89
2023/02/20 03:58:22;;;;;;;23.23;14.70;;;256.40;2252.80;;;;;;5069716;28;20120;-89
2023/02/20 04:00:51;;;;;;;23.95;14.38;;;256.40;2252.80;;;;;;5036399;28;20025;-88
2023/02/20 04:03:22;;;;;;;22.92;16.00;;;256.30;2252.80;;;;;;5069968;28;20033;-89
2023/02/20 04:05:53;;;;;;;27.00;18.98;;;256.30;2252.80;;;;;;5069693;28;20029;-88
2023/02/20 04:08:34;;;;;;;30.27;20.80;;;256.20;2252.80;;;;;;5037312;28;20438;-89
2023/02/20 04:11:14;;;;;;;33.88;21.98;;;256.20;2252.80;;;;;;5069733;28;20025;-89
2023/02/20 04:13:40;;;;;;;37.40;23.35;;;256.20;2252.80;;;;;;5069378;28;20092;-89
2023/02/20 04:16:07;;;;;;;22.42;12.68;;;256.10;2252.80;;;;;;5069307;28;20044;-89
2023/02/20 04:18:34;;;;;;;20.15;11.65;;;256.10;2252.80;;;;;;5069165;28;20080;-89
2023/02/20 04:21:03;;;;;;;22.67;12.95;;;256.20;2252.80;;;;;;5069239;28;20492;-88
2023/02/20 04:23:36;;;;;;;8.57;5.22;;;256.30;2252.80;;;;;;5069159;28;20033;-89
2023/02/20 04:26:13;;;;;;;10.25;6.00;;;256.30;2252.80;;;;;;5036902;28;20025;-89
2023/02/20 04:28:39;;;;;;;10.02;5.95;;;256.30;2252.80;;;;;;5035231;28;20082;-88
2023/02/20 04:31:05;;;;;;;10.45;6.82;;;256.40;2252.80;;;;;;5035592;28;20075;-89
2023/02/20 04:33:31;;;;;;;9.43;4.78;;;256.40;2252.80;;;;;;5035784;28;20120;-88
2023/02/20 04:35:57;;;;;;;10.35;6.43;;;256.40;2252.80;;;;;;5036622;28;20537;-89
2023/02/20 04:38:23;;;;;;;6.88;3.60;;;256.40;2252.80;;;;;;5035619;28;20049;-89
2023/02/20 04:40:52;;;;;;;6.82;4.28;;;256.40;2252.80;;;;;;5035532;28;20116;-89
2023/02/20 04:43:18;;;;;;;9.50;3.10;;;256.30;2252.80;;;;;;5035415;28;20109;-89
2023/02/20 04:45:44;;;;;;;6.38;4.15;;;256.30;2252.80;;;;;;5035518;28;20064;-89
2023/02/20 04:48:09;;;;;;;10.55;5.95;;;256.30;2252.80;;;;;;5035362;28;20030;-88
2023/02/20 04:50:35;;;;;;;6.82;4.38;;;256.20;2252.80;;;;;;5035299;28;20025;-88
2023/02/20 04:53:01;;;;;;;6.82;4.63;;;256.10;2252.80;;;;;;5035293;28;20469;-87
2023/02/20 04:55:28;;;;;;;11.23;6.65;;;256.00;2252.80;;;;;;5035221;28;20087;-88
2023/02/20 04:57:56;;;;;;;9.70;6.25;;;256.00;2252.80;;;;;;5035225;28;20030;-89
2023/02/20 05:00:24;;;;;;;7.25;4.90;;;256.00;2252.80;;;;;;5035273;28;20030;-89
2023/02/20 05:02:49;;;;;;;9.80;5.13;;;256.00;2252.80;;;;;;5035333;28;20465;-88
2023/02/20 05:05:27;;;;;;;10.77;7.55;;;256.00;2252.80;;;;;;5035352;28;20032;-89
2023/02/20 05:07:55;;;;;;;8.75;5.00;;;256.00;2252.80;;;;;;5035446;28;20026;-89
2023/02/20 05:10:22;;;;;;;10.23;6.85;;;256.00;2252.80;;;;;;5035094;28;20022;-89
2023/02/20 05:12:48;;;;;;;8.35;5.53;;;256.00;2252.80;;;;;;5035251;28;20048;-88
2023/02/20 05:15:14;;;;;;;11.23;7.82;;;256.00;2252.80;;;;;;5037493;28;20469;-89
2023/02/20 05:17:40;;;;;;;12.32;6.90;;;256.00;2252.80;;;;;;5040402;28;20025;-88
2023/02/20 05:20:06;;;;;;;9.93;5.88;;;256.00;2252.80;;;;;;5036994;28;20092;-90
2023/02/20 05:22:33;;;;;;;8.82;5.97;;;256.00;2252.80;;;;;;5035068;28;20035;-89
2023/02/20 05:24:59;;;;;;;9.65;5.97;;;256.00;2252.80;;;;;;5034861;28;20057;-89
2023/02/20 05:27:27;;;;;;;10.68;6.95;;;256.10;2252.80;;;;;;5034856;28;20552;-89
2023/02/20 05:29:56;;;;;;;13.18;8.27;;;256.10;2252.80;;;;;;5034846;28;20065;-89
2023/02/20 05:32:25;;;;;;;13.23;7.68;;;256.10;2252.80;;;;;;5034709;28;20032;-92
2023/02/20 05:34:50;;;;;;;16.08;9.60;;;256.10;2252.80;;;;;;5034375;28;20060;-91
2023/02/20 05:37:18;;;;;;;12.38;7.32;;;256.10;2252.80;;;;;;5034532;28;20037;-89
2023/02/20 05:39:45;;;;;;;10.88;6.72;;;256.10;2252.80;;;;;;5034349;28;20026;-89
2023/02/20 05:42:11;;;;;;;10.73;7.43;;;256.20;2252.80;;;;;;5034568;28;20029;-90
2023/02/20 05:44:37;;;;;;;16.13;10.50;;;231.10;2252.80;;;;;;5034606;28;20025;-89
2023/02/20 05:47:04;;;;;;;13.60;8.77;;;256.20;2252.80;;;;;;5068048;28;20032;-90
2023/02/20 05:49:31;;;;;;;13.80;7.60;;;256.20;2252.80;;;;;;5034341;28;20432;-90
2023/02/20 05:51:57;;;;;;;11.18;7.47;;;256.20;2252.80;;;;;;5035153;28;20017;-89
2023/02/20 05:54:23;;;;;;;12.85;7.57;;;256.20;2252.80;;;;;;5033913;28;20112;-89
2023/02/20 05:56:50;;;;;;;12.23;6.78;;;256.10;2252.80;;;;;;5034012;28;20072;-89
2023/02/20 05:59:20;;;;;;;10.52;6.97;;;256.20;2252.80;;;;;;5034203;28;20028;-89
2023/02/20 06:01:46;;;;;;;20.40;11.65;;;256.20;2252.80;;;;;;5034306;28;20373;-90
2023/02/20 06:04:12;;;;;;;14.73;9.60;;;256.20;2252.80;;;;;;5035607;28;20032;-89
2023/02/20 06:06:40;;;;;;;15.05;7.93;;;256.20;2252.80;;;;;;5035148;28;20037;-90
2023/02/20 06:09:09;;;;;;;10.00;5.97;;;256.20;2252.80;;;;;;5034618;28;20036;-89
2023/02/20 06:11:35;;;;;;;8.07;5.60;;;256.20;2252.80;;;;;;5034404;28;20059;-89
2023/02/20 06:14:03;;;;;;;11.38;6.88;;;256.20;2252.80;;;;;;5033982;28;20033;-90
2023/02/20 06:16:29;;;;;;;14.52;9.45;;;256.20;2252.80;;;;;;5033748;28;20116;-89
2023/02/20 06:18:56;;;;;;;12.48;6.80;;;256.30;2252.80;;;;;;5034094;28;20026;-90
2023/02/20 06:21:23;;;;;;;11.43;7.20;;;256.30;2252.80;;;;;;5034029;28;20025;-90
2023/02/20 06:23:50;;;;;;;10.80;6.07;;;256.20;2252.80;;;;;;5034106;28;20035;-90
2023/02/20 06:26:17;;;;;;;9.88;6.32;;;256.30;2252.80;;;;;;5034331;28;20498;-91
2023/02/20 06:28:43;;;;;;;10.15;6.15;;;256.30;2252.80;;;;;;5034922;28;20028;-90
2023/02/20 06:31:10;;;;;;;12.13;7.45;;;256.30;2252.80;;;;;;5033982;28;20029;-91
2023/02/20 06:33:36;;;;;;;9.60;6.25;;;256.30;2252.80;;;;;;5033966;28;20461;-90
2023/02/20 06:36:03;;;;;;;28.25;15.60;;;256.40;2252.80;;;;;;5033724;28;20076;-89
2023/02/20 06:38:30;;;;;;;26.33;16.55;;;256.40;2252.80;;;;;;5033339;28;20032;-90
2023/02/20 06:40:55;;;;;;;17.75;11.13;;;256.50;2252.80;;;;;;5033785;28;20032;-90
2023/02/20 06:43:21;;;;;;;20.05;12.18;;;256.50;2252.80;;;;;;5034006;28;20398;-90
2023/02/20 06:45:47;;;;;;;15.88;8.95;;;256.50;2252.80;;;;;;5034911;28;20033;-90
2023/02/20 06:48:13;;;;;;;14.65;9.07;;;256.60;2252.80;;;;;;5033394;28;20426;-90
2023/02/20 06:50:40;;;;;;;16.90;11.55;;;256.60;2252.80;;;;;;5033851;28;20036;-90
2023/02/20 06:53:06;;;;;;;9.05;6.40;;;256.70;2252.80;;;;;;5036728;28;20060;-90
2023/02/20 06:55:32;;;;;;;9.93;7.25;;;256.70;2252.80;;;;;;5037645;28;20065;-90
2023/02/20 06:57:58;;;;;;;14.98;8.70;;;256.70;2252.80;;;;;;5037207;28;20044;-86
2023/02/20 07:00:24;;;;;;;12.48;8.50;;;256.70;2252.80;;;;;;5037568;28;20453;-87
2023/02/20 07:02:51;;;;;;;10.02;6.88;;;256.80;2252.80;;;;;;5038791;28;20021;-89
2023/02/20 07:05:17;;;;;;;12.20;6.22;;;256.80;2252.80;;;;;;5056533;28;20052;-87
2023/02/20 07:07:43;;;;;;;21.17;14.18;;;256.90;2252.80;;;;;;5056797;28;20025;-90
2023/02/20 07:10:09;;;;;;;9.27;6.85;;;256.90;2252.80;;;;;;5057853;28;20357;-88
2023/02/20 07:12:37;;;;;;;9.30;5.82;;;256.90;2252.80;;;;;;5056095;28;20490;-87
2023/02/20 07:15:04;;;;;;;8.48;5.68;;;256.90;2252.80;;;;;;5055733;28;20021;-88
2023/02/20 07:17:30;;;;;;;13.43;7.97;;;281.60;2278.40;;;;;;5055398;28;20488;-86
2023/02/20 07:19:56;;;;;;;7.15;5.63;;;281.60;2278.40;;;;;;5055744;28;20025;-86
2023/02/20 07:22:22;;;;;;;12.43;8.55;;;281.70;2278.40;;;;;;5056614;28;20025;-89
2023/02/20 07:24:51;;;;;;;8.65;6.75;;;281.70;2278.40;;;;;;5056323;28;20025;-89
2023/02/20 07:27:17;;;;;;;13.45;8.52;;;281.70;2278.40;;;;;;5056439;28;20028;-88
2023/02/20 07:29:48;;;;;;;13.35;9.18;;;281.80;2278.40;;;;;;5055451;28;20029;-88
2023/02/20 07:32:19;;;;;;;15.77;9.68;;;281.90;2278.40;;;;;;5056246;28;20025;-85
2023/02/20 07:34:45;;;;;;;16.23;9.75;;;281.90;2278.40;;;;;;5055075;28;20060;-86
2023/02/20 07:37:11;;;;;;;10.23;6.05;;;281.90;2278.40;;;;;;5055873;28;20464;-87
2023/02/20 07:39:37;;;;;;;17.88;10.35;;;281.90;2278.40;;;;;;5056387;28;20048;-87
2023/02/20 07:42:03;;;;;;;19.63;12.23;;;282.00;2278.40;;;;;;5056266;28;20021;-86
2023/02/20 07:44:28;;;;;;;15.57;7.90;;;282.00;2278.40;;;;;;5056628;28;20032;-87
2023/02/20 07:46:54;;;;;;;15.15;8.98;;;282.00;2278.40;;;;;;5056804;28;20035;-85
2023/02/20 07:49:20;;;;;;;13.27;9.02;;;282.00;2278.40;;;;;;5056504;28;20037;-87
2023/02/20 07:51:45;;;;;;;14.30;8.27;;;282.00;2278.40;;;;;;5055587;28;20032;-85
2023/02/20 07:54:11;;;;;;;15.90;8.38;;;282.10;2278.40;;;;;;5056029;28;20021;-87
2023/02/20 07:56:39;;;;;;;11.95;7.57;;;282.10;2278.40;;;;;;5056464;28;20205;-87
2023/02/20 07:59:05;;;;;;;12.02;6.22;;;282.40;2278.40;;;;;;5056231;28;20029;-87
2023/02/20 08:01:31;;;;;;;12.68;7.25;;;282.20;2278.40;;;;;;5054772;28;20044;-88
2023/02/20 08:03:56;;;;;;;11.60;6.60;;;282.20;2278.40;;;;;;5054647;28;20029;-87
2023/02/20 08:06:22;;;;;;;12.30;8.20;;;282.30;2278.40;;;;;;5057165;28;20021;-88
2023/02/20 08:08:51;;;;;;;11.57;6.60;;;282.30;2278.40;;;;;;5055615;28;20025;-86
2023/02/20 08:11:18;;;;;;;8.45;4.97;;;282.40;2278.40;;;;;;5055934;28;20051;-88
2023/02/20 08:13:44;;;;;;;7.72;4.90;;;282.30;2278.40;;;;;;5055300;28;20085;-87
2023/02/20 08:16:10;;;;;;;11.70;6.07;;;282.30;2278.40;;;;;;5056002;28;20033;-88
2023/02/20 08:18:36;;;;;;;13.48;7.80;;;282.40;2278.40;;;;;;5055657;28;20434;-87
2023/02/20 08:21:02;;;;;;;10.07;6.57;;;282.50;2278.40;;;;;;5056022;28;20022;-86
2023/02/20 08:23:28;;;;;;;13.23;7.38;;;282.50;2278.40;;;;;;5056731;28;20037;-88
2023/02/20 08:25:54;;;;;;;15.80;11.40;;;307.20;2304.00;;;;;;5056444;28;20028;-87
2023/02/20 08:28:20;;;;;;;12.65;7.10;;;307.20;2304.00;;;;;;5056433;28;20048;-88
2023/02/20 08:30:46;;;;;;;14.50;9.32;;;282.50;2278.40;;;;;;5074254;28;20045;-82
2023/02/20 08:33:12;;;;;;;9.18;6.00;;;282.50;2278.40;;;;;;5079124;28;20032;-83
2023/02/20 08:35:38;;;;;;;28.00;18.02;;;282.40;2278.40;;;;;;5079865;28;20112;-84
2023/02/20 08:38:05;;;;;;;28.20;17.75;;;282.40;2278.40;;;;;;5079936;28;20029;-85
2023/02/20 08:40:32;;;;;;;38.10;23.65;;;282.40;2278.40;;;;;;5067611;28;20029;-87
2023/02/20 08:42:58;;;;;;;33.20;21.45;;;282.50;2278.40;;;;;;5055314;28;20028;-86
2023/02/20 08:45:24;;;;;;;31.50;18.23;;;282.40;2278.40;;;;;;5055555;28;20163;-87
2023/02/20 08:47:50;;;;;;;61.65;31.00;;;282.40;2278.40;;;;;;5054809;28;20083;-86
2023/02/20 08:50:18;;;;;;;32.70;20.48;;;282.40;2278.40;;;;;;5055516;28;20377;-88
2023/02/20 08:52:44;;;;;;;17.30;12.13;;;282.50;2278.40;;;;;;5045292;28;20079;-88
2023/02/20 08:55:12;;;;;;;16.25;14.52;;;282.50;2278.40;;;;;;5068138;28;20521;-87
2023/02/20 08:57:37;;;;;;;14.43;10.75;;;307.20;2304.00;;;;;;5035827;28;20473;-87
2023/02/20 09:00:06;;;;;;;16.52;12.57;;;307.20;2304.00;;;;;;5068948;28;20032;-89
2023/02/20 09:02:32;;;;;;;10.95;6.65;;;307.40;2304.00;;;;;;5067957;28;20029;-88
2023/02/20 09:04:58;;;;;;;8.68;5.15;;;307.40;2304.00;;;;;;5034695;28;20017;-89
2023/02/20 09:07:24;;;;;;;11.63;7.50;;;307.40;2304.00;;;;;;5035553;28;20432;-87
2023/02/20 09:09:50;;;;;;;12.23;7.20;;;307.60;2304.00;;;;;;5034608;28;20028;-87
2023/02/20 09:12:16;;;;;;;10.30;6.95;;;307.60;2304.00;;;;;;5034774;28;20120;-87
2023/02/20 09:14:42;;;;;;;11.02;6.90;;;307.60;2304.00;;;;;;5033978;28;20120;-88
2023/02/20 09:17:08;;;;;;;11.38;7.40;;;307.70;2304.00;;;;;;5034004;28;20140;-87
2023/02/20 09:19:34;;;;;;;11.10;7.05;;;307.80;2304.00;;;;;;5034464;28;20477;-85
2023/02/20 09:22:00;;;;;;;9.38;6.47;;;307.80;2304.00;;;;;;5034335;28;20112;-87
2023/02/20 09:24:32;;;;;;;8.00;4.80;;;307.80;2304.00;;;;;;5034472;28;20022;-89
2023/02/20 09:27:00;;;;;;;8.77;5.15;;;307.80;2304.00;;;;;;5035614;28;20025;-88
2023/02/20 09:29:26;;;;;;;6.97;4.47;;;307.90;2304.00;;;;;;5033895;28;20029;-89
2023/02/20 09:31:52;;;;;;;6.50;3.85;;;307.90;2304.00;;;;;;5034089;28;20032;-87
2023/02/20 09:34:17;;;;;;;10.25;5.07;;;308.00;2304.00;;;;;;5033983;28;20029;-88
2023/02/20 09:36:43;;;;;;;6.00;3.85;;;308.00;2304.00;;;;;;5033554;28;20049;-88
2023/02/20 09:39:09;;;;;;;9.98;4.35;;;308.00;2304.00;;;;;;5034071;28;20022;-85
2023/02/20 09:41:37;;;;;;;5.32;3.40;;;308.10;2304.00;;;;;;5034072;28;20500;-88
2023/02/20 09:44:12;;;;;;;6.05;3.20;;;308.00;2304.00;;;;;;5033502;28;20032;-86
2023/02/20 09:46:38;;;;;;;6.05;3.53;;;308.10;2304.00;;;;;;5033844;28;20039;-87
2023/02/20 09:49:19;;;;;;;9.15;5.18;;;308.10;2304.00;;;;;;5033922;28;20457;-87
2023/02/20 09:51:56;;;;;;;9.27;4.70;;;332.80;2329.60;;;;;;5033895;28;20421;-88
2023/02/20 09:55:00;;;;;;;8.77;5.03;;;332.80;2329.60;;;;;;5034327;28;20022;-91
2023/02/20 09:57:28;;;;;;;5.43;3.20;;;332.90;2329.60;;;;;;5013283;28;20038;-89
2023/02/20 10:00:12;;;;;;;5.40;3.25;;;332.90;2304.00;;;;;;5034303;28;20025;-88
2023/02/20 10:02:52;;;;;;;7.57;4.20;;;332.90;2278.40;;;;;;5034080;28;20116;-89
2023/02/20 10:05:22;;;;;;;10.25;5.03;;;332.80;2278.40;;;;;;5033460;28;20465;-90
2023/02/20 10:07:49;;;;;;;6.75;4.05;;;332.80;2304.00;;;;;;5034197;28;20033;-89
2023/02/20 10:10:33;;;;;;;10.18;5.68;;;332.80;2252.80;;;;;;5034950;28;20080;-85
2023/02/20 10:13:17;;;;;;;15.20;7.05;;;332.90;2252.80;;;;;;5034696;28;20053;-88
2023/02/20 10:16:14;;;;;;;6.57;3.13;;;332.80;2252.80;;;;;;5046796;28;20041;-88
2023/02/20 10:19:23;;;;;;;9.60;4.55;;;332.80;2252.80;;;;;;5053543;28;20428;-89
2023/02/20 10:22:03;;;;;;;8.30;5.10;;;332.80;2252.80;;;;;;5040369;28;20033;-90
2023/02/20 10:24:54;;;;;;;10.73;5.93;;;332.90;2227.20;;;;;;5053478;28;20464;-90
2023/02/20 10:27:33;;;;;;;6.47;4.35;;;333.10;2252.80;;;;;;5053160;28;20033;-89
2023/02/20 10:30:04;;;;;;;8.82;4.88;;;333.10;2227.20;;;;;;5053734;28;20047;-88
2023/02/20 10:32:35;;;;;;;8.57;4.53;;;;;;;;;;5053260;28;20032;-88
2023/02/20 10:35:24;;;;;;;8.63;4.90;;;;;;;;;;5053151;28;20049;-88
2023/02/20 10:37:56;;;;;;;9.55;5.10;;;;;;;;;;5045706;28;20423;-87
2023/02/20 10:40:34;;;;;;;6.95;4.57;;;;;;;;;;5053078;28;20033;-89
2023/02/20 10:43:00;;;;;;;6.38;3.75;;;;;;;;;;5053109;28;20017;-90
2023/02/20 10:45:27;;;;;;;5.80;3.60;;;;;;;;;;5054497;28;20469;-89
2023/02/20 10:48:06;;;;;;;9.32;5.57;;;;;;;;;;5058214;28;20032;-88
2023/02/20 10:50:41;;;;;;;9.23;5.70;;;;;;;;;;5060534;28;20063;-85
2023/02/20 10:53:13;;;;;;;7.13;3.63;;;;;;;;;;5060561;28;20032;-90
2023/02/20 10:55:39;;;;;;;8.15;5.97;;;;;;;;;;5060196;28;20174;-88
2023/02/20 10:58:21;;;;;;;7.65;3.92;;;;;;;;;;5053624;28;20032;-89
2023/02/20 11:00:59;;;;;;;7.40;5.03;;;;;;;;;;5053561;28;20059;-86
2023/02/20 11:03:34;;;;;;;28.13;19.65;;;;;;;;;;5053585;28;20160;-84
2023/02/20 11:06:02;;;;;;;13.18;7.65;;;;;;;;;;5052394;28;20032;-83
2023/02/20 11:08:28;;;;;;;31.33;22.95;;;;;;;;;;5052507;28;20106;-84
2023/02/20 11:10:56;;;;;;;16.90;11.32;;;;;;;;;;5052409;28;20021;-85
2023/02/20 11:13:24;;;;;;;11.73;7.43;;;;;;;;;;5052397;28;20495;-85
2023/02/20 11:15:51;;;;;;;11.48;7.40;;;;;;;;;;5051349;28;20029;-85
2023/02/20 11:18:25;;;;;;;18.50;12.00;;;;;;;;;;5051576;28;20033;-87
2023/02/20 11:39:31;;;;;;;19.55;12.73;;;;;;;;;;5865886;22;20244;-84
2023/02/20 11:42:05;;;;;;;10.80;7.53;;;;;;;;;;4977346;28;20034;-87
2023/02/20 11:44:31;;;;;;;16.05;10.77;;;384.60;1996.80;;;;;;4977679;28;20473;-87
2023/02/20 11:47:18;;;;;;;26.00;15.68;;;384.70;1971.20;;;;;;4979121;28;20035;-85
2023/02/20 11:49:44;;;;;;;13.88;8.13;;;409.70;1971.20;;;;;;4961750;28;20073;-85
2023/02/20 11:52:17;;;;;;;15.32;9.38;;;409.90;2099.20;;;;;;4961634;28;20027;-84
2023/02/20 11:54:44;;;;;;;13.15;7.88;;;410.20;1945.60;;;;;;4961207;28;20019;-86
2023/02/20 11:57:28;;;;;;;16.00;11.25;;;409.90;1920.00;;;;;;4962453;28;20047;-85
2023/02/20 12:00:18;;;;;;;15.02;9.27;;;410.50;1920.00;;;;;;4961608;28;20023;-84
2023/02/20 12:03:08;;;;;;;12.75;8.82;;;435.50;1920.00;;;;;;4961086;28;20398;-83
2023/02/20 12:05:46;;;;;;;8.23;5.30;;;435.60;1868.80;;;;;;4976970;28;20034;-84
2023/02/20 12:08:36;;;;;;;28.33;19.60;;;435.90;1843.20;;;;;;4961555;28;20478;-85
2023/02/20 12:11:10;;;;;;;33.63;29.95;;;435.80;1843.20;;;;;;4961854;28;20048;-84
2023/02/20 12:13:40;;;;;;;10.85;7.00;;;435.90;1843.20;;;;;;4965884;28;20086;-85
2023/02/20 12:16:33;;;;;;;9.65;5.38;;;436.10;1817.60;;;;;;4967253;28;20049;-85
2023/02/20 12:19:14;;;;;;;6.22;4.28;;;461.00;1843.20;;;;;;4983324;28;20034;-84
2023/02/20 12:22:00;;;;;;;10.07;5.78;;;461.00;1843.20;;;;;;4983529;28;20033;-85
2023/02/20 12:24:44;;;;;;;14.40;7.28;;;460.90;1843.20;;;;;;4967547;28;20030;-86
2023/02/20 12:27:25;;;;;;;14.20;8.65;;;461.00;1817.60;;;;;;4982303;28;20034;-86
2023/02/20 12:30:14;;;;;;;13.85;6.90;;;460.80;1843.20;;;;;;4981838;28;20034;-86
2023/02/20 12:33:18;;;;;;;8.52;5.50;;;435.60;1843.20;;;;;;4983142;28;20054;-84
2023/02/20 12:35:57;;;;;;;11.85;7.45;;;435.20;1868.80;;;;;;4955358;28;20046;-84
2023/02/20 12:38:31;;;;;;;14.80;9.45;;;410.50;1868.80;;;;;;4960646;28;20031;-86
2023/02/20 12:41:09;;;;;;;12.55;6.82;;;435.30;1868.80;;;;;;4976363;28;20058;-85
2023/02/20 12:43:58;;;;;;;11.95;7.00;;;410.30;1894.40;;;;;;4976919;28;20528;-85
2023/02/20 12:46:33;;;;;;;12.00;6.05;;;409.70;1920.00;;;;;;4961638;28;20115;-88
2023/02/20 12:49:21;;;;;;;10.63;6.78;;;409.60;1945.60;;;;;;4960867;28;20119;-87
2023/02/20 12:52:04;;;;;;;10.30;6.55;;;384.90;1920.00;;;;;;4975626;28;20027;-86
2023/02/20 12:54:52;;;;;;;11.15;6.10;;;410.20;1894.40;;;;;;4976153;28;20082;-84
2023/02/20 12:57:24;;;;;;;8.43;5.00;;;409.80;1920.00;;;;;;4959463;28;20034;-87
2023/02/20 13:00:05;;;;;;;;;;;384.90;1894.40;;;;;;4957714;28;20046;-88
2023/02/20 13:02:50;;;;;;;8.43;5.35;;;409.60;1920.00;;;;;;4974567;28;19906;-87
2023/02/20 13:05:21;;;;;;;7.18;4.70;;;409.80;1945.60;;;;;;4959727;28;20034;-83
2023/02/20 13:07:51;;;;;;;5.65;3.42;;;409.70;1945.60;;;;;;4960067;28;20058;-86
2023/02/20 13:10:26;;;;;;;14.23;10.63;;;384.90;1920.00;;;;;;4958147;28;20050;-84